Terminal Aerodrome Forecast
Issued by NWS

Home | Current Version | Previous Version | Text Only | Print | Product List | Glossary On
Versions: 1 2 3 4 5 6 7 8 9 10 11 12 13
000
FTUS43 KTOP 250520
TAFMHK
TAF
KMHK 250520Z 2506/2606 17009KT P6SM BKN200
     FM250700 15009KT P6SM BKN150 WS020/19043KT
     FM251300 16012KT P6SM OVC035
     FM252100 31008KT P6SM OVC020=

USA.gov is the U.S. government's official web portal to all federal, state and local government web resources and services.